Time;durP1;ratioP1;P1;durP2;ratioP2;P2;SDS_P1;SDS_P2;PMS_P1;PMS_P2;Temp;Humidity;BMP_temperature;BMP_pressure;BME280_temperature;BME280_humidity;BME280_pressure;Samples;Min_cycle;Max_cycle;Signal;HPM_P1;HPM_P2
2021/03/11 00:00:09;;;;;;;12.70;10.23;;;7.30;96.10;;;;;;4977117;28;20474;-88
2021/03/11 00:02:36;;;;;;;10.57;8.00;;;7.30;96.30;;;;;;4974586;28;20458;-89
2021/03/11 00:05:04;;;;;;;15.53;10.70;;;7.30;96.10;;;;;;4973193;28;20461;-87
2021/03/11 00:07:30;;;;;;;14.37;9.10;;;7.30;96.20;;;;;;4977029;28;20481;-90
2021/03/11 00:09:57;;;;;;;10.00;7.00;;;7.30;96.30;;;;;;4977022;28;20836;-91
2021/03/11 00:12:23;;;;;;;14.83;9.70;;;7.30;96.20;;;;;;4977361;28;20452;-88
2021/03/11 00:14:49;;;;;;;7.50;4.63;;;7.20;96.30;;;;;;4984725;28;20457;-89
2021/03/11 00:17:16;;;;;;;15.07;10.37;;;7.20;96.30;;;;;;4979071;28;20458;-89
2021/03/11 00:19:44;;;;;;;7.13;5.07;;;7.20;96.60;;;;;;4976361;28;20449;-88
2021/03/11 00:22:10;;;;;;;12.90;8.67;;;7.20;96.70;;;;;;4973986;28;20650;-90
2021/03/11 00:24:37;;;;;;;11.63;9.20;;;7.20;96.70;;;;;;4986721;28;20442;-88
2021/03/11 00:27:03;;;;;;;10.70;8.30;;;7.20;96.70;;;;;;4987918;28;20956;-87
2021/03/11 00:29:30;;;;;;;13.80;10.20;;;7.30;96.90;;;;;;4976960;28;20509;-87
2021/03/11 00:31:57;;;;;;;12.73;10.00;;;7.30;97.00;;;;;;4976374;28;20458;-89
2021/03/11 00:34:24;;;;;;;13.67;10.30;;;7.20;97.10;;;;;;4975289;28;20816;-87
2021/03/11 00:36:50;;;;;;;10.57;7.50;;;7.20;97.20;;;;;;4975389;28;20593;-88
2021/03/11 00:39:18;;;;;;;10.17;7.80;;;7.20;97.30;;;;;;4976701;28;20442;-88
2021/03/11 00:41:45;;;;;;;18.73;10.40;;;7.20;97.40;;;;;;4976240;28;20906;-88
2021/03/11 00:44:12;;;;;;;12.93;9.43;;;7.20;97.50;;;;;;4976116;28;20961;-89
2021/03/11 00:46:38;;;;;;;14.17;10.93;;;7.20;97.70;;;;;;4976150;28;20946;-89
2021/03/11 00:49:04;;;;;;;13.80;10.43;;;7.20;97.80;;;;;;4972095;28;20549;-88
2021/03/11 00:51:32;;;;;;;15.37;9.87;;;7.20;98.00;;;;;;4976040;28;20465;-91
2021/03/11 00:53:58;;;;;;;11.87;8.50;;;7.20;98.10;;;;;;4975926;28;20450;-89
2021/03/11 00:56:25;;;;;;;12.63;9.50;;;7.20;98.20;;;;;;4975887;28;20458;-88
2021/03/11 00:58:51;;;;;;;14.50;9.80;;;7.20;98.20;;;;;;4975672;28;20493;-89
2021/03/11 01:01:17;;;;;;;11.70;9.27;;;7.20;98.10;;;;;;4975864;28;20457;-89
2021/03/11 01:03:44;;;;;;;9.27;7.37;;;7.10;98.50;;;;;;4971757;28;20446;-88
2021/03/11 01:06:10;;;;;;;6.80;5.20;;;7.10;98.50;;;;;;4975750;28;20533;-88
2021/03/11 01:08:37;;;;;;;13.60;9.10;;;7.10;98.50;;;;;;4975564;28;20540;-89
2021/03/11 01:11:04;;;;;;;12.83;9.50;;;7.20;98.60;;;;;;4975702;28;20855;-87
2021/03/11 01:13:31;;;;;;;16.63;10.27;;;7.10;98.70;;;;;;4975569;28;20454;-88
2021/03/11 01:15:57;;;;;;;14.90;9.57;;;7.20;98.80;;;;;;4975698;28;20450;-88
2021/03/11 01:18:25;;;;;;;14.03;9.47;;;7.10;98.90;;;;;;4975532;28;20450;-89
2021/03/11 01:20:51;;;;;;;12.93;8.47;;;7.10;98.90;;;;;;4974504;28;20531;-89
2021/03/11 01:23:17;;;;;;;9.50;5.63;;;7.20;98.90;;;;;;4975585;28;20475;-87
2021/03/11 01:25:44;;;;;;;12.97;8.83;;;7.20;98.80;;;;;;4972348;28;20782;-88
2021/03/11 01:28:11;;;;;;;11.50;8.13;;;7.20;99.10;;;;;;4969912;28;20463;-89
2021/03/11 01:30:37;;;;;;;16.77;6.27;;;7.30;99.00;;;;;;4973696;28;20466;-87
2021/03/11 01:33:04;;;;;;;8.90;6.50;;;7.30;99.10;;;;;;4975154;28;20454;-89
2021/03/11 01:35:31;;;;;;;11.63;6.70;;;7.30;99.20;;;;;;4974075;28;20462;-86
2021/03/11 01:37:57;;;;;;;7.07;4.70;;;7.30;99.30;;;;;;4975206;28;20454;-87
2021/03/11 01:40:24;;;;;;;9.27;6.33;;;7.30;99.50;;;;;;4970990;28;20564;-89
2021/03/11 01:42:51;;;;;;;8.30;6.17;;;7.50;99.90;;;;;;4974994;28;20465;-87
2021/03/11 01:45:18;;;;;;;5.53;4.27;;;7.40;99.80;;;;;;4975102;28;20501;-88
2021/03/11 01:47:45;;;;;;;6.67;5.30;;;7.40;99.90;;;;;;4974805;28;20446;-89
2021/03/11 01:50:12;;;;;;;3.10;2.40;;;7.40;99.90;;;;;;4973816;28;21005;-89
2021/03/11 01:52:40;;;;;;;3.70;2.53;;;7.40;99.90;;;;;;4941008;28;20454;-89
2021/03/11 01:55:09;;;;;;;6.77;4.50;;;7.40;99.90;;;;;;4972331;28;20903;-88
2021/03/11 01:57:36;;;;;;;5.53;3.40;;;7.40;99.90;;;;;;4974605;28;20544;-88
2021/03/11 02:00:07;;;;;;;5.87;4.00;;;7.40;99.90;;;;;;4974917;28;20470;-90
2021/03/11 02:02:35;;;;;;;5.60;4.30;;;7.40;99.90;;;;;;4974865;28;20446;-89
2021/03/11 02:05:02;;;;;;;4.23;3.27;;;7.40;99.90;;;;;;4973703;28;20481;-88
2021/03/11 02:07:29;;;;;;;3.00;2.10;;;7.40;99.90;;;;;;4974706;28;20450;-88
2021/03/11 02:09:55;;;;;;;6.17;4.57;;;7.30;99.90;;;;;;4974522;28;20854;-87
2021/03/11 02:12:29;;;;;;;6.10;4.10;;;7.40;99.90;;;;;;4974710;28;20458;-88
2021/03/11 02:15:06;;;;;;;5.67;4.20;;;7.40;99.90;;;;;;4974466;28;20480;-88
2021/03/11 02:17:40;;;;;;;4.87;3.40;;;7.40;99.90;;;;;;4974542;28;20450;-89
2021/03/11 02:20:39;;;;;;;6.40;4.13;;;7.40;99.90;;;;;;4973308;28;20461;-88
2021/03/11 02:23:35;;;;;;;4.93;4.30;;;7.40;99.90;;;;;;4974429;28;20946;-88
2021/03/11 02:26:12;;;;;;;6.30;4.07;;;7.40;99.90;;;;;;4974432;28;20501;-87
2021/03/11 02:28:53;;;;;;;6.57;4.30;;;7.30;99.90;;;;;;4971098;28;20516;-89
2021/03/11 02:31:21;;;;;;;6.10;4.07;;;7.30;99.90;;;;;;4971170;28;20773;-88
2021/03/11 02:33:49;;;;;;;6.27;4.10;;;7.30;99.90;;;;;;4973017;28;20512;-89
2021/03/11 02:36:15;;;;;;;5.43;4.37;;;7.30;99.90;;;;;;4970186;28;20457;-89
2021/03/11 02:38:43;;;;;;;6.73;4.87;;;7.30;99.90;;;;;;4974188;28;20579;-87
2021/03/11 02:41:11;;;;;;;6.40;4.87;;;7.40;99.90;;;;;;4940139;28;20454;-88
2021/03/11 02:43:38;;;;;;;6.53;4.33;;;8.20;99.90;;;;;;4971490;28;20457;-88
2021/03/11 02:46:06;;;;;;;7.00;4.90;;;7.40;99.90;;;;;;4969908;28;20449;-90
2021/03/11 02:48:34;;;;;;;6.57;4.90;;;7.40;99.90;;;;;;4973883;28;20454;-89
2021/03/11 02:51:01;;;;;;;7.17;5.30;;;7.50;99.90;;;;;;4972998;28;20973;-89
2021/03/11 02:53:27;;;;;;;7.40;5.00;;;7.40;99.90;;;;;;4974033;28;20488;-90
2021/03/11 02:55:58;;;;;;;3.60;2.57;;;7.50;99.90;;;;;;4973911;28;20861;-88
2021/03/11 02:58:26;;;;;;;6.53;4.60;;;7.30;99.90;;;;;;4970709;28;20871;-88
2021/03/11 03:00:54;;;;;;;8.03;5.20;;;7.30;99.90;;;;;;4973411;28;20454;-88
2021/03/11 03:03:22;;;;;;;9.63;5.50;;;7.20;99.90;;;;;;4973801;28;20834;-87
2021/03/11 03:05:51;;;;;;;7.00;4.80;;;7.30;99.90;;;;;;4972790;28;20461;-88
2021/03/11 03:08:18;;;;;;;12.40;4.70;;;7.60;99.90;;;;;;4969613;28;20457;-87
2021/03/11 03:10:46;;;;;;;6.17;5.00;;;7.20;99.90;;;;;;4973802;28;20469;-87
2021/03/11 03:13:15;;;;;;;8.03;5.30;;;7.30;99.90;;;;;;4973706;28;20454;-88
2021/03/11 03:15:41;;;;;;;5.03;4.20;;;7.30;99.90;;;;;;4973571;28;20978;-87
2021/03/11 03:18:10;;;;;;;5.77;4.43;;;7.30;99.90;;;;;;4973715;28;20454;-87
2021/03/11 03:20:42;;;;;;;6.63;4.53;;;7.20;99.90;;;;;;4965663;28;20971;-86
2021/03/11 03:23:09;;;;;;;6.70;4.73;;;7.30;99.90;;;;;;4973663;28;20896;-87
2021/03/11 03:25:35;;;;;;;7.50;4.90;;;7.30;99.90;;;;;;4973492;28;20462;-87
2021/03/11 03:28:02;;;;;;;8.50;4.80;;;7.20;99.90;;;;;;4894820;29;20457;-88
2021/03/11 03:30:28;;;;;;;7.00;4.57;;;7.30;99.90;;;;;;4895018;29;20546;-87
2021/03/11 03:32:55;;;;;;;7.47;5.00;;;7.20;99.90;;;;;;4891806;29;20461;-86
2021/03/11 03:35:22;;;;;;;6.43;4.67;;;7.20;99.90;;;;;;4893681;29;20850;-86
2021/03/11 03:37:50;;;;;;;5.67;4.07;;;7.40;99.90;;;;;;4895145;29;20493;-88
2021/03/11 03:40:18;;;;;;;4.50;2.97;;;7.60;99.90;;;;;;4891676;29;20914;-87
2021/03/11 03:42:49;;;;;;;3.60;3.07;;;7.90;99.90;;;;;;4891572;29;20454;-90
2021/03/11 03:45:20;;;;;;;7.20;3.97;;;8.00;99.90;;;;;;4905691;28;20445;-87
2021/03/11 03:47:49;;;;;;;3.80;2.97;;;8.10;99.90;;;;;;4973387;28;20914;-87
2021/03/11 03:50:17;;;;;;;3.93;2.70;;;8.20;99.90;;;;;;4972032;28;20493;-86
2021/03/11 03:52:44;;;;;;;4.93;3.00;;;8.30;99.90;;;;;;4973300;28;20473;-88
2021/03/11 03:55:13;;;;;;;6.23;2.50;;;8.30;99.90;;;;;;4973314;28;20457;-87
2021/03/11 03:57:43;;;;;;;3.23;2.80;;;8.40;99.90;;;;;;4970342;28;20781;-88
2021/03/11 04:00:10;;;;;;;3.87;2.47;;;8.50;99.90;;;;;;4970395;28;20532;-87
2021/03/11 04:02:37;;;;;;;5.30;2.67;;;8.50;99.90;;;;;;4971438;28;20454;-93
2021/03/11 04:05:06;;;;;;;4.77;2.60;;;9.60;99.90;;;;;;4972644;28;20537;-88
2021/03/11 04:07:34;;;;;;;4.30;2.80;;;8.70;99.90;;;;;;4921481;28;20458;-88
2021/03/11 04:10:05;;;;;;;3.50;2.10;;;8.70;99.90;;;;;;4973450;28;20504;-91
2021/03/11 04:12:33;;;;;;;3.33;2.60;;;8.80;99.90;;;;;;4973224;28;20985;-89
2021/03/11 04:15:01;;;;;;;4.03;3.03;;;8.80;99.90;;;;;;4974358;28;20868;-90
2021/03/11 04:17:29;;;;;;;2.73;2.27;;;8.80;99.90;;;;;;4977349;28;20458;-90
2021/03/11 04:19:56;;;;;;;3.97;1.93;;;8.80;99.90;;;;;;4976696;28;20446;-88
2021/03/11 04:22:23;;;;;;;4.80;3.30;;;8.80;99.90;;;;;;4977211;28;20504;-90
2021/03/11 04:24:50;;;;;;;5.70;2.80;;;8.80;99.90;;;;;;4976994;28;20458;-89
2021/03/11 04:27:16;;;;;;;4.10;3.37;;;8.80;99.90;;;;;;4974281;28;20771;-87
2021/03/11 04:29:44;;;;;;;3.20;1.53;;;8.90;99.90;;;;;;4977043;28;20501;-89
2021/03/11 04:32:11;;;;;;;5.57;2.20;;;8.80;99.90;;;;;;4976588;28;21000;-90
2021/03/11 04:34:37;;;;;;;5.10;2.97;;;8.80;99.90;;;;;;4975971;28;20451;-90
2021/03/11 04:37:05;;;;;;;2.13;1.53;;;8.80;99.90;;;;;;4976697;28;20454;-89
2021/03/11 04:39:32;;;;;;;5.80;2.73;;;8.80;99.90;;;;;;4972578;28;20481;-90
2021/03/11 04:41:58;;;;;;;3.33;2.87;;;8.70;99.90;;;;;;4973503;28;20465;-89
2021/03/11 04:44:28;;;;;;;4.13;2.20;;;8.80;99.90;;;;;;4977461;28;20450;-89
2021/03/11 04:46:57;;;;;;;5.17;1.67;;;8.80;99.90;;;;;;4976642;28;20473;-89
2021/03/11 04:49:24;;;;;;;3.37;2.40;;;8.80;99.90;;;;;;4975265;28;20501;-88
2021/03/11 04:51:51;;;;;;;3.87;2.67;;;8.80;99.90;;;;;;4973731;28;20476;-88
2021/03/11 04:54:19;;;;;;;5.23;2.70;;;8.80;99.90;;;;;;4973783;28;20484;-89
2021/03/11 04:56:45;;;;;;;2.90;1.33;;;8.80;99.90;;;;;;4976041;28;20477;-89
2021/03/11 04:59:12;;;;;;;4.90;2.80;;;8.80;99.90;;;;;;4973235;28;20450;-88
2021/03/11 05:01:41;;;;;;;2.20;1.77;;;8.80;99.90;;;;;;4976369;28;20465;-88
2021/03/11 05:04:10;;;;;;;3.83;2.90;;;8.80;99.90;;;;;;4972523;28;20457;-90
2021/03/11 05:06:36;;;;;;;3.33;1.90;;;8.80;99.90;;;;;;4976352;28;20941;-90
2021/03/11 05:09:04;;;;;;;1.93;1.57;;;8.80;99.90;;;;;;4976149;28;20488;-92
2021/03/11 05:11:30;;;;;;;5.00;2.53;;;8.80;99.90;;;;;;4976471;28;20450;-90
2021/03/11 05:13:57;;;;;;;2.20;1.50;;;8.80;99.90;;;;;;4973662;28;20829;-89
2021/03/11 05:16:23;;;;;;;4.30;2.30;;;8.90;99.90;;;;;;4976509;28;20493;-92
2021/03/11 05:18:49;;;;;;;4.53;1.73;;;8.80;99.90;;;;;;4975929;28;20498;-92
2021/03/11 05:21:17;;;;;;;2.80;1.80;;;8.80;99.90;;;;;;4976473;28;20438;-92
2021/03/11 05:23:43;;;;;;;2.57;1.70;;;8.80;99.90;;;;;;4975947;28;20478;-91
2021/03/11 05:26:10;;;;;;;4.03;1.80;;;8.80;99.90;;;;;;4976258;28;20462;-89
2021/03/11 05:28:36;;;;;;;3.00;1.90;;;8.80;99.90;;;;;;4976154;28;20442;-89
2021/03/11 05:31:02;;;;;;;2.30;1.43;;;8.80;99.90;;;;;;4964251;28;20808;-90
2021/03/11 05:33:30;;;;;;;2.13;1.93;;;8.60;99.90;;;;;;4964749;28;20458;-88
2021/03/11 05:35:56;;;;;;;2.10;1.40;;;9.20;99.90;;;;;;4972160;28;20457;-89
2021/03/11 05:38:23;;;;;;;2.20;1.73;;;8.70;99.90;;;;;;4973185;28;20993;-94
2021/03/11 05:40:55;;;;;;;8.50;2.30;;;8.70;99.90;;;;;;4970241;28;20942;-88
2021/03/11 05:43:21;;;;;;;2.50;2.07;;;8.70;99.90;;;;;;4968543;28;20454;-90
2021/03/11 05:45:50;;;;;;;2.63;2.03;;;8.70;99.90;;;;;;4963648;28;20455;-93
2021/03/11 05:48:19;;;;;;;5.23;3.30;;;9.00;99.90;;;;;;4963261;28;20438;-88
2021/03/11 05:50:48;;;;;;;6.10;3.53;;;8.70;99.90;;;;;;4964601;28;20498;-89
2021/03/11 05:53:15;;;;;;;5.33;3.60;;;8.70;99.90;;;;;;4966741;28;20448;-89
2021/03/11 05:55:45;;;;;;;4.33;2.40;;;8.50;99.90;;;;;;4973627;28;20481;-91
2021/03/11 05:58:18;;;;;;;5.20;1.80;;;8.70;99.90;;;;;;4969652;28;20481;-91
2021/03/11 06:00:45;;;;;;;3.97;1.90;;;10.30;99.90;;;;;;4959411;28;20458;-91
2021/03/11 06:03:14;;;;;;;3.73;2.53;;;9.00;99.90;;;;;;4962608;28;20502;-92
2021/03/11 06:05:45;;;;;;;3.13;2.57;;;8.80;99.90;;;;;;4958683;28;20793;-90
2021/03/11 06:08:14;;;;;;;7.63;2.77;;;8.80;99.90;;;;;;4970882;28;20451;-89
2021/03/11 06:10:42;;;;;;;7.47;2.70;;;8.80;99.90;;;;;;4961053;28;20495;-89
2021/03/11 06:13:12;;;;;;;2.40;1.50;;;8.70;99.90;;;;;;4969827;28;20446;-90
2021/03/11 06:15:41;;;;;;;2.47;2.03;;;8.70;99.90;;;;;;4970458;28;20512;-90
2021/03/11 06:18:12;;;;;;;2.17;1.53;;;8.70;99.90;;;;;;4959850;28;20454;-93
2021/03/11 06:20:41;;;;;;;5.20;3.10;;;8.90;99.90;;;;;;4965550;28;20451;-92
2021/03/11 06:23:08;;;;;;;8.70;2.90;;;9.30;99.90;;;;;;4966389;28;20542;-90
2021/03/11 06:25:36;;;;;;;3.00;2.10;;;8.80;99.90;;;;;;4967405;28;20444;-91
2021/03/11 06:28:06;;;;;;;1.77;1.43;;;9.30;99.90;;;;;;4959694;28;20442;-91
2021/03/11 06:30:37;;;;;;;2.13;1.90;;;9.00;99.90;;;;;;4964793;28;20494;-89
2021/03/11 06:33:07;;;;;;;1.43;1.30;;;9.00;99.90;;;;;;4965850;28;20529;-93
2021/03/11 06:35:38;;;;;;;2.50;1.80;;;9.10;99.90;;;;;;4967042;28;20454;-92
2021/03/11 06:38:28;;;;;;;2.20;1.57;;;9.50;99.90;;;;;;4958124;28;20455;-94
2021/03/11 06:40:55;;;;;;;4.80;2.37;;;9.60;99.90;;;;;;4975680;28;20436;-90
2021/03/11 06:43:23;;;;;;;3.83;1.70;;;9.30;99.90;;;;;;4971206;28;20493;-91
2021/03/11 06:46:06;;;;;;;2.30;1.67;;;9.30;99.90;;;;;;4974138;28;20829;-90
2021/03/11 06:48:35;;;;;;;1.63;0.87;;;9.30;99.90;;;;;;4963285;28;21005;-92
2021/03/11 06:51:16;;;;;;;3.53;2.10;;;9.40;99.90;;;;;;4890083;29;20526;-94
2021/03/11 06:53:54;;;;;;;3.93;1.60;;;9.70;99.90;;;;;;4890792;29;20457;-88
2021/03/11 06:56:22;;;;;;;1.87;1.53;;;9.70;99.90;;;;;;4887461;29;20477;-87
2021/03/11 06:58:56;;;;;;;1.80;1.50;;;9.20;99.90;;;;;;4885387;29;20477;-89
2021/03/11 07:01:24;;;;;;;2.27;1.33;;;9.50;99.90;;;;;;4891485;29;20453;-90
2021/03/11 07:03:51;;;;;;;2.37;2.07;;;9.50;99.90;;;;;;4858510;29;20443;-90
2021/03/11 07:06:30;;;;;;;2.40;1.40;;;9.60;99.90;;;;;;4862119;29;20448;-87
2021/03/11 07:09:01;;;;;;;1.20;0.80;;;9.40;99.90;;;;;;4891998;29;20444;-87
2021/03/11 07:11:29;;;;;;;2.83;1.83;;;9.60;99.90;;;;;;4936355;29;20583;-88
2021/03/11 07:13:59;;;;;;;2.57;1.33;;;9.60;99.90;;;;;;4935939;29;20452;-88
2021/03/11 07:16:35;;;;;;;2.30;1.53;;;9.60;99.90;;;;;;4937103;29;20456;-91
2021/03/11 07:19:16;;;;;;;9.27;5.70;;;9.70;99.90;;;;;;4933945;29;20448;-85
2021/03/11 07:21:48;;;;;;;3.23;1.27;;;9.70;99.90;;;;;;4947187;28;20443;-91
2021/03/11 07:24:35;;;;;;;1.30;1.20;;;9.80;99.90;;;;;;4965877;28;20450;-86
2021/03/11 07:27:03;;;;;;;2.60;1.53;;;9.70;99.90;;;;;;4965604;28;20802;-86
2021/03/11 07:29:31;;;;;;;2.17;1.53;;;;;;;;;;4962178;28;20485;-90
2021/03/11 07:32:03;;;;;;;2.27;1.50;;;9.90;99.90;;;;;;4965313;28;20447;-89
2021/03/11 07:34:39;;;;;;;3.03;2.00;;;9.90;99.90;;;;;;4966889;28;20454;-88
2021/03/11 07:37:09;;;;;;;2.00;1.43;;;10.10;99.90;;;;;;4969710;28;20985;-88
2021/03/11 07:39:37;;;;;;;3.17;1.83;;;10.00;99.90;;;;;;4969377;28;20462;-89
2021/03/11 07:42:07;;;;;;;1.27;0.97;;;10.00;99.90;;;;;;4972287;28;20450;-91
2021/03/11 07:44:36;;;;;;;1.40;1.10;;;10.10;99.90;;;;;;4962682;28;20451;-91
2021/03/11 07:47:10;;;;;;;2.50;2.07;;;10.10;99.90;;;;;;4970182;28;20500;-91
2021/03/11 07:49:48;;;;;;;1.93;1.03;;;10.10;99.90;;;;;;4906556;29;20486;-91
2021/03/11 07:52:15;;;;;;;2.83;1.67;;;10.10;99.90;;;;;;4894023;29;20965;-89
2021/03/11 07:54:42;;;;;;;3.70;1.73;;;10.00;99.90;;;;;;4883099;29;20457;-88
2021/03/11 07:57:09;;;;;;;1.50;1.40;;;10.20;99.90;;;;;;4884696;29;20482;-89
2021/03/11 07:59:35;;;;;;;2.00;1.07;;;10.30;99.90;;;;;;4885851;29;20446;-90
2021/03/11 08:02:09;;;;;;;1.90;1.80;;;10.30;99.90;;;;;;4891894;29;20446;-91
2021/03/11 08:04:41;;;;;;;0.97;0.60;;;10.40;99.90;;;;;;4890913;29;20601;-89
2021/03/11 08:07:18;;;;;;;1.90;1.13;;;10.30;99.90;;;;;;4893796;29;20454;-91
2021/03/11 08:09:45;;;;;;;2.10;1.57;;;10.40;99.90;;;;;;4894248;29;20505;-88
2021/03/11 08:12:37;;;;;;;2.50;1.30;;;10.30;99.90;;;;;;4889254;29;20458;-93
2021/03/11 08:15:06;;;;;;;2.30;1.20;;;10.50;99.90;;;;;;4884010;29;20463;-93
2021/03/11 08:17:41;;;;;;;3.33;1.23;;;10.60;99.90;;;;;;4885396;29;20458;-90
2021/03/11 08:20:09;;;;;;;1.90;1.43;;;10.60;99.90;;;;;;4908730;29;20787;-89
2021/03/11 08:23:04;;;;;;;2.17;1.10;;;10.70;99.90;;;;;;4959919;29;20816;-91
2021/03/11 08:25:41;;;;;;;3.57;1.17;;;10.80;99.90;;;;;;4961490;29;20439;-90
2021/03/11 08:28:37;;;;;;;1.90;1.23;;;10.80;99.90;;;;;;4961331;29;20454;-88
2021/03/11 08:31:05;;;;;;;3.27;1.17;;;10.90;99.90;;;;;;4961819;29;20486;-86
2021/03/11 08:33:51;;;;;;;1.10;1.00;;;11.10;99.90;;;;;;4960781;29;20916;-90
2021/03/11 08:36:47;;;;;;;1.07;0.97;;;11.00;99.90;;;;;;4959808;29;20453;-90
2021/03/11 08:39:37;;;;;;;7.60;1.73;;;11.00;99.90;;;;;;4970274;29;20455;-88
2021/03/11 08:42:49;;;;;;;4.70;1.10;;;11.20;99.90;;;;;;4964389;29;20445;-88
2021/03/11 08:46:00;;;;;;;2.90;1.23;;;11.20;99.90;;;;;;4961406;29;20458;-94
2021/03/11 08:48:28;;;;;;;2.67;1.43;;;11.30;99.90;;;;;;4961890;29;20442;-90
2021/03/11 08:50:56;;;;;;;1.37;1.27;;;11.70;99.90;;;;;;4962491;29;20578;-91
2021/03/11 08:53:47;;;;;;;2.10;1.17;;;11.20;99.90;;;;;;4961204;29;20454;-88
2021/03/11 08:56:39;;;;;;;2.40;0.87;;;11.50;99.90;;;;;;4957183;28;20479;-90
2021/03/11 08:59:07;;;;;;;2.43;1.40;;;11.40;99.90;;;;;;4923106;29;20949;-90
2021/03/11 09:01:39;;;;;;;1.50;0.90;;;11.40;99.90;;;;;;4919771;29;20448;-90
2021/03/11 09:04:07;;;;;;;1.07;0.93;;;11.60;99.90;;;;;;4921661;29;20460;-87
2021/03/11 09:06:59;;;;;;;1.30;0.90;;;11.60;99.90;;;;;;4920427;29;20460;-90
2021/03/11 09:09:33;;;;;;;1.73;0.50;;;11.60;99.90;;;;;;4912949;29;20489;-93
2021/03/11 09:12:02;;;;;;;0.60;0.60;;;11.70;99.90;;;;;;4919107;29;20465;-88
2021/03/11 09:14:29;;;;;;;1.07;0.60;;;11.70;99.90;;;;;;4919820;29;20461;-89
2021/03/11 09:17:04;;;;;;;1.27;0.70;;;11.80;99.90;;;;;;4919427;29;20455;-90
2021/03/11 09:19:52;;;;;;;0.80;0.60;;;11.70;99.90;;;;;;4918131;29;20460;-86
2021/03/11 09:22:27;;;;;;;0.90;0.90;;;11.90;99.90;;;;;;4920219;29;20452;-86
2021/03/11 09:25:26;;;;;;;1.90;0.90;;;11.90;99.90;;;;;;4930638;29;20483;-87
2021/03/11 09:27:56;;;;;;;0.93;0.73;;;12.20;99.90;;;;;;4931014;29;20514;-87
2021/03/11 09:30:24;;;;;;;1.47;1.33;;;12.10;99.90;;;;;;4937447;29;20527;-86
2021/03/11 09:32:51;;;;;;;1.63;1.20;;;12.10;99.90;;;;;;4937725;29;20492;-86
2021/03/11 09:35:19;;;;;;;1.67;1.07;;;12.00;99.90;;;;;;4937658;29;20502;-89
2021/03/11 09:37:57;;;;;;;0.97;0.87;;;12.10;99.90;;;;;;4936727;29;20452;-87
2021/03/11 09:40:27;;;;;;;4.43;0.80;;;12.10;99.90;;;;;;4941182;29;20459;-89
2021/03/11 09:43:14;;;;;;;1.13;0.90;;;12.20;99.90;;;;;;4940001;29;20460;-90
2021/03/11 09:45:43;;;;;;;0.60;0.60;;;12.20;99.90;;;;;;4940745;29;20498;-89
2021/03/11 09:48:11;;;;;;;1.13;0.70;;;12.30;99.90;;;;;;4935429;29;20457;-89
2021/03/11 09:50:40;;;;;;;0.50;0.50;;;12.50;99.90;;;;;;4919639;29;20500;-90
2021/03/11 09:53:07;;;;;;;1.80;1.03;;;12.60;99.90;;;;;;4930277;29;20452;-90
2021/03/11 09:55:37;;;;;;;2.13;0.90;;;12.80;99.90;;;;;;4935219;29;20482;-91
2021/03/11 09:58:06;;;;;;;5.07;0.93;;;12.70;99.90;;;;;;4960202;28;20486;-95
2021/03/11 10:00:35;;;;;;;1.60;0.83;;;13.00;99.90;;;;;;4972999;28;20804;-94
2021/03/11 10:03:02;;;;;;;1.43;0.90;;;;;;;;;;4979180;28;20461;-90
2021/03/11 10:05:32;;;;;;;1.27;0.70;;;12.50;99.90;;;;;;4978281;28;20446;-91
2021/03/11 10:07:59;;;;;;;0.83;0.70;;;12.50;99.90;;;;;;4987648;28;20457;-88
2021/03/11 10:10:27;;;;;;;1.10;0.70;;;12.40;99.90;;;;;;4976854;28;20500;-90
2021/03/11 10:12:56;;;;;;;0.67;0.50;;;12.40;99.90;;;;;;4977060;28;20513;-88
2021/03/11 10:15:23;;;;;;;1.23;0.70;;;12.40;99.90;;;;;;4976438;28;20467;-90
2021/03/11 10:18:08;;;;;;;2.00;0.80;;;12.50;99.90;;;;;;4978201;28;20438;-88
2021/03/11 10:20:34;;;;;;;0.90;0.40;;;12.60;99.90;;;;;;4971990;28;20453;-89
2021/03/11 10:23:17;;;;;;;1.37;0.70;;;12.70;99.90;;;;;;4976895;28;20949;-90
2021/03/11 10:25:44;;;;;;;0.80;0.70;;;12.70;99.90;;;;;;4976643;28;20454;-88
2021/03/11 10:28:11;;;;;;;4.00;1.20;;;12.50;99.90;;;;;;4974051;28;20520;-90
2021/03/11 10:30:40;;;;;;;1.07;0.97;;;12.60;99.90;;;;;;4973739;28;21036;-87
2021/03/11 10:33:07;;;;;;;2.30;2.00;;;12.50;99.90;;;;;;4976205;28;20930;-89
2021/03/11 10:35:35;;;;;;;1.27;0.83;;;12.50;99.90;;;;;;4972306;28;20462;-89
2021/03/11 10:38:15;;;;;;;0.63;0.60;;;12.50;99.90;;;;;;4976852;28;20451;-89
2021/03/11 10:40:42;;;;;;;1.83;0.50;;;12.40;99.90;;;;;;4976597;28;20450;-91
2021/03/11 10:43:18;;;;;;;2.17;0.93;;;12.40;99.90;;;;;;4976132;28;20462;-88
2021/03/11 10:45:44;;;;;;;0.50;0.40;;;12.50;99.90;;;;;;4976044;28;20453;-90
2021/03/11 10:48:12;;;;;;;0.83;0.63;;;12.50;99.90;;;;;;4971526;28;20446;-88
2021/03/11 10:50:41;;;;;;;0.60;0.40;;;12.60;99.90;;;;;;4974241;28;20497;-89
2021/03/11 10:53:08;;;;;;;1.87;0.90;;;12.60;99.90;;;;;;4975549;28;20942;-88
2021/03/11 10:55:36;;;;;;;0.73;0.47;;;12.50;99.90;;;;;;4974325;28;20828;-89
2021/03/11 10:58:04;;;;;;;0.80;0.77;;;12.50;99.90;;;;;;4975284;28;20489;-89
2021/03/11 11:00:33;;;;;;;1.93;0.37;;;12.50;99.90;;;;;;4975220;28;20814;-87
2021/03/11 11:03:02;;;;;;;1.07;0.60;;;12.50;99.90;;;;;;4975187;28;20513;-89
2021/03/11 11:05:30;;;;;;;0.97;0.40;;;12.40;99.90;;;;;;4967171;28;20461;-91
2021/03/11 11:07:58;;;;;;;2.00;0.90;;;12.40;99.90;;;;;;4976410;28;20454;-89
2021/03/11 11:10:26;;;;;;;0.57;0.50;;;12.40;99.90;;;;;;4975985;28;20989;-88
2021/03/11 11:12:53;;;;;;;2.97;0.70;;;12.40;99.90;;;;;;4972768;28;20454;-91
2021/03/11 11:15:20;;;;;;;7.07;3.90;;;12.20;99.90;;;;;;4969830;28;20513;-90
2021/03/11 11:17:47;;;;;;;0.60;0.50;;;11.80;99.90;;;;;;4976398;28;20465;-89
2021/03/11 11:20:16;;;;;;;1.40;0.80;;;11.80;99.90;;;;;;4971428;28;20453;-86
2021/03/11 11:22:43;;;;;;;0.50;0.40;;;11.70;99.90;;;;;;4977914;28;20446;-86
2021/03/11 11:25:11;;;;;;;0.70;0.50;;;11.60;99.90;;;;;;4982001;28;20450;-88
2021/03/11 11:27:37;;;;;;;0.77;0.63;;;11.50;99.90;;;;;;4981305;28;20454;-88
2021/03/11 11:30:06;;;;;;;1.40;0.60;;;11.50;99.90;;;;;;4980819;28;20501;-89
2021/03/11 11:32:32;;;;;;;1.43;0.97;;;11.40;99.90;;;;;;4970044;28;20457;-90
2021/03/11 11:35:01;;;;;;;0.60;0.50;;;11.40;99.90;;;;;;4976642;28;20454;-86
2021/03/11 11:37:28;;;;;;;3.30;1.30;;;11.40;99.90;;;;;;4980784;28;20481;-86
2021/03/11 11:39:54;;;;;;;0.70;0.60;;;11.40;99.90;;;;;;4980238;28;20549;-87
2021/03/11 11:42:20;;;;;;;0.80;0.43;;;11.30;99.90;;;;;;4976477;28;20485;-88
2021/03/11 11:44:47;;;;;;;1.87;0.57;;;11.30;99.90;;;;;;4975999;28;20445;-88
2021/03/11 11:47:14;;;;;;;1.07;0.70;;;11.30;99.90;;;;;;4980465;28;20446;-90
2021/03/11 11:49:41;;;;;;;0.67;0.60;;;11.20;99.90;;;;;;4977677;28;21008;-88
2021/03/11 11:52:08;;;;;;;1.00;0.77;;;11.20;99.90;;;;;;4975472;28;20454;-90
2021/03/11 11:54:36;;;;;;;2.37;1.57;;;11.10;99.90;;;;;;4980567;28;21004;-88
2021/03/11 11:57:03;;;;;;;1.10;1.00;;;11.20;99.90;;;;;;4974796;28;20477;-88
2021/03/11 11:59:29;;;;;;;0.60;0.50;;;11.10;99.90;;;;;;4980415;28;20457;-90
2021/03/11 12:01:55;;;;;;;1.53;0.90;;;11.10;99.90;;;;;;4980929;28;20450;-88
2021/03/11 12:04:22;;;;;;;0.60;0.50;;;11.30;99.90;;;;;;4898477;29;20466;-90
2021/03/11 12:06:49;;;;;;;2.20;1.03;;;;;;;;;;4903686;29;20449;-89
2021/03/11 12:09:16;;;;;;;1.10;0.77;;;11.40;99.90;;;;;;4902130;29;20540;-87
2021/03/11 12:11:43;;;;;;;3.80;1.77;;;11.40;99.90;;;;;;4903341;29;20489;-86
2021/03/11 12:14:09;;;;;;;2.80;1.17;;;11.40;99.90;;;;;;4904785;29;20450;-85
2021/03/11 12:16:35;;;;;;;12.03;6.27;;;11.40;99.90;;;;;;4905736;29;20462;-88
2021/03/11 12:19:02;;;;;;;1.33;0.90;;;11.50;99.90;;;;;;4902797;29;20469;-89
2021/03/11 12:21:28;;;;;;;2.33;1.13;;;11.50;99.90;;;;;;4909032;28;20461;-88
2021/03/11 12:23:54;;;;;;;0.63;0.63;;;11.30;99.90;;;;;;4976672;28;20450;-89
2021/03/11 12:26:22;;;;;;;0.70;0.60;;;11.40;99.90;;;;;;4976425;28;20462;-92
2021/03/11 12:28:48;;;;;;;1.20;0.70;;;11.40;99.90;;;;;;4979235;28;20454;-92
2021/03/11 12:31:15;;;;;;;0.97;0.80;;;11.50;99.90;;;;;;4981609;28;20609;-91
2021/03/11 12:33:42;;;;;;;0.60;0.47;;;11.60;99.90;;;;;;4984478;28;20449;-90
2021/03/11 12:36:09;;;;;;;0.90;0.50;;;11.60;99.90;;;;;;4980460;28;20462;-89
2021/03/11 12:38:36;;;;;;;0.97;0.70;;;11.80;99.90;;;;;;4979171;28;20525;-92
2021/03/11 12:41:03;;;;;;;0.87;0.73;;;12.00;99.90;;;;;;4981574;28;20454;-94
2021/03/11 12:43:31;;;;;;;0.50;0.33;;;12.20;99.90;;;;;;4982202;28;20451;-91
2021/03/11 12:45:57;;;;;;;0.60;0.50;;;12.10;99.90;;;;;;4978004;28;20466;-94
2021/03/11 12:48:24;;;;;;;1.83;0.50;;;12.20;99.90;;;;;;4983570;28;20450;-92
2021/03/11 12:50:50;;;;;;;1.10;0.70;;;12.00;99.90;;;;;;4976828;28;20482;-92
2021/03/11 12:53:17;;;;;;;1.03;0.50;;;13.10;99.90;;;;;;4977715;28;20830;-92
2021/03/11 12:55:44;;;;;;;2.00;0.80;;;;;;;;;;4980695;28;21073;-94
2021/03/11 12:58:11;;;;;;;1.13;0.40;;;12.20;99.90;;;;;;4980100;28;20830;-90
2021/03/11 13:00:38;;;;;;;0.90;0.57;;;12.20;99.90;;;;;;4979406;28;20446;-92
2021/03/11 13:03:06;;;;;;;0.73;0.70;;;12.10;99.90;;;;;;4980312;28;20461;-91
2021/03/11 13:05:33;;;;;;;1.10;0.53;;;12.20;99.90;;;;;;4977913;28;20450;-88